sensor_id;sensor_type;location;lat;lon;timestamp;P1;durP1;ratioP1;P2;durP2;ratioP2
20181;SDS011;10250;50.756;6.172;2024-02-16T00:00:59;8.43;;;1.90;;
20181;SDS011;10250;50.756;6.172;2024-02-16T00:02:59;7.20;;;1.63;;
20181;SDS011;10250;50.756;6.172;2024-02-16T00:05:00;8.93;;;2.00;;
20181;SDS011;10250;50.756;6.172;2024-02-16T00:07:01;9.40;;;2.20;;
20181;SDS011;10250;50.756;6.172;2024-02-16T00:09:01;8.10;;;1.97;;
20181;SDS011;10250;50.756;6.172;2024-02-16T00:11:02;4.13;;;1.47;;
20181;SDS011;10250;50.756;6.172;2024-02-16T00:13:03;11.70;;;2.13;;
20181;SDS011;10250;50.756;6.172;2024-02-16T00:15:03;8.13;;;2.00;;
20181;SDS011;10250;50.756;6.172;2024-02-16T00:17:04;8.13;;;1.90;;
20181;SDS011;10250;50.756;6.172;2024-02-16T00:19:05;5.80;;;1.53;;
20181;SDS011;10250;50.756;6.172;2024-02-16T00:21:05;8.50;;;2.00;;
20181;SDS011;10250;50.756;6.172;2024-02-16T00:23:06;8.13;;;1.80;;
20181;SDS011;10250;50.756;6.172;2024-02-16T00:25:07;5.40;;;1.73;;
20181;SDS011;10250;50.756;6.172;2024-02-16T00:27:07;6.20;;;1.70;;
20181;SDS011;10250;50.756;6.172;2024-02-16T00:29:08;7.53;;;1.70;;
20181;SDS011;10250;50.756;6.172;2024-02-16T00:31:09;7.07;;;1.90;;
20181;SDS011;10250;50.756;6.172;2024-02-16T00:33:09;6.90;;;1.90;;
20181;SDS011;10250;50.756;6.172;2024-02-16T00:35:10;6.10;;;1.70;;
20181;SDS011;10250;50.756;6.172;2024-02-16T00:37:11;6.80;;;1.67;;
20181;SDS011;10250;50.756;6.172;2024-02-16T00:39:12;6.30;;;1.80;;
20181;SDS011;10250;50.756;6.172;2024-02-16T00:41:19;5.00;;;1.67;;
20181;SDS011;10250;50.756;6.172;2024-02-16T00:43:20;4.60;;;1.53;;
20181;SDS011;10250;50.756;6.172;2024-02-16T00:45:21;6.30;;;1.57;;
20181;SDS011;10250;50.756;6.172;2024-02-16T00:47:21;7.63;;;1.60;;
20181;SDS011;10250;50.756;6.172;2024-02-16T00:49:23;8.83;;;2.00;;
20181;SDS011;10250;50.756;6.172;2024-02-16T00:51:24;7.00;;;1.90;;
20181;SDS011;10250;50.756;6.172;2024-02-16T00:53:26;6.23;;;1.70;;
20181;SDS011;10250;50.756;6.172;2024-02-16T00:55:26;6.47;;;1.77;;
20181;SDS011;10250;50.756;6.172;2024-02-16T00:57:27;4.53;;;1.37;;
20181;SDS011;10250;50.756;6.172;2024-02-16T00:59:28;6.70;;;1.60;;
20181;SDS011;10250;50.756;6.172;2024-02-16T01:01:29;7.33;;;1.80;;
20181;SDS011;10250;50.756;6.172;2024-02-16T01:03:29;8.03;;;1.90;;
20181;SDS011;10250;50.756;6.172;2024-02-16T01:05:30;6.03;;;1.90;;
20181;SDS011;10250;50.756;6.172;2024-02-16T01:07:30;6.40;;;1.63;;
20181;SDS011;10250;50.756;6.172;2024-02-16T01:09:32;6.67;;;1.73;;
20181;SDS011;10250;50.756;6.172;2024-02-16T01:11:32;7.23;;;1.60;;
20181;SDS011;10250;50.756;6.172;2024-02-16T01:13:34;8.43;;;2.03;;
20181;SDS011;10250;50.756;6.172;2024-02-16T01:15:34;8.33;;;1.70;;
20181;SDS011;10250;50.756;6.172;2024-02-16T01:17:36;8.57;;;1.90;;
20181;SDS011;10250;50.756;6.172;2024-02-16T01:19:39;7.23;;;1.70;;
20181;SDS011;10250;50.756;6.172;2024-02-16T01:21:40;8.47;;;1.80;;
20181;SDS011;10250;50.756;6.172;2024-02-16T01:23:41;7.30;;;1.90;;
20181;SDS011;10250;50.756;6.172;2024-02-16T01:25:41;9.13;;;1.97;;
20181;SDS011;10250;50.756;6.172;2024-02-16T01:27:42;5.70;;;1.87;;
20181;SDS011;10250;50.756;6.172;2024-02-16T01:29:42;6.87;;;1.90;;
20181;SDS011;10250;50.756;6.172;2024-02-16T01:31:43;7.27;;;1.70;;
20181;SDS011;10250;50.756;6.172;2024-02-16T01:33:44;7.43;;;1.80;;
20181;SDS011;10250;50.756;6.172;2024-02-16T01:35:44;7.97;;;1.97;;
20181;SDS011;10250;50.756;6.172;2024-02-16T01:37:46;8.53;;;1.73;;
20181;SDS011;10250;50.756;6.172;2024-02-16T01:39:47;6.27;;;1.70;;
20181;SDS011;10250;50.756;6.172;2024-02-16T01:41:47;6.30;;;1.80;;
20181;SDS011;10250;50.756;6.172;2024-02-16T01:43:48;4.40;;;1.50;;
20181;SDS011;10250;50.756;6.172;2024-02-16T01:45:48;6.33;;;1.90;;
20181;SDS011;10250;50.756;6.172;2024-02-16T01:47:49;7.23;;;1.83;;
20181;SDS011;10250;50.756;6.172;2024-02-16T01:49:51;8.67;;;1.90;;
20181;SDS011;10250;50.756;6.172;2024-02-16T01:51:52;9.57;;;1.93;;
20181;SDS011;10250;50.756;6.172;2024-02-16T01:53:52;4.13;;;1.37;;
20181;SDS011;10250;50.756;6.172;2024-02-16T01:55:55;5.80;;;1.53;;
20181;SDS011;10250;50.756;6.172;2024-02-16T01:57:56;7.87;;;1.87;;
20181;SDS011;10250;50.756;6.172;2024-02-16T01:59:59;7.63;;;1.70;;
20181;SDS011;10250;50.756;6.172;2024-02-16T02:02:00;7.73;;;1.80;;
20181;SDS011;10250;50.756;6.172;2024-02-16T02:04:00;8.70;;;2.00;;
20181;SDS011;10250;50.756;6.172;2024-02-16T02:06:01;8.13;;;1.90;;
20181;SDS011;10250;50.756;6.172;2024-02-16T02:08:09;9.20;;;1.67;;
20181;SDS011;10250;50.756;6.172;2024-02-16T02:10:10;8.70;;;2.03;;
20181;SDS011;10250;50.756;6.172;2024-02-16T02:12:12;8.23;;;2.03;;
20181;SDS011;10250;50.756;6.172;2024-02-16T02:14:13;8.20;;;2.07;;
20181;SDS011;10250;50.756;6.172;2024-02-16T02:16:14;7.60;;;1.90;;
20181;SDS011;10250;50.756;6.172;2024-02-16T02:18:16;8.30;;;1.90;;
20181;SDS011;10250;50.756;6.172;2024-02-16T02:20:18;4.67;;;1.60;;
20181;SDS011;10250;50.756;6.172;2024-02-16T02:22:19;9.83;;;2.10;;
20181;SDS011;10250;50.756;6.172;2024-02-16T02:24:20;6.77;;;1.97;;
20181;SDS011;10250;50.756;6.172;2024-02-16T02:26:21;10.93;;;2.20;;
20181;SDS011;10250;50.756;6.172;2024-02-16T02:28:22;8.87;;;2.10;;
20181;SDS011;10250;50.756;6.172;2024-02-16T02:30:24;7.33;;;1.90;;
20181;SDS011;10250;50.756;6.172;2024-02-16T02:32:24;6.53;;;1.83;;
20181;SDS011;10250;50.756;6.172;2024-02-16T02:34:25;7.17;;;2.03;;
20181;SDS011;10250;50.756;6.172;2024-02-16T02:36:25;8.63;;;1.80;;
20181;SDS011;10250;50.756;6.172;2024-02-16T02:38:26;7.03;;;1.80;;
20181;SDS011;10250;50.756;6.172;2024-02-16T02:40:27;7.53;;;2.03;;
20181;SDS011;10250;50.756;6.172;2024-02-16T02:42:27;9.27;;;2.40;;
20181;SDS011;10250;50.756;6.172;2024-02-16T02:44:28;8.00;;;2.00;;
20181;SDS011;10250;50.756;6.172;2024-02-16T02:46:31;5.90;;;1.80;;
20181;SDS011;10250;50.756;6.172;2024-02-16T02:48:32;10.43;;;2.47;;
20181;SDS011;10250;50.756;6.172;2024-02-16T02:50:32;7.10;;;1.77;;
20181;SDS011;10250;50.756;6.172;2024-02-16T02:52:33;7.50;;;2.13;;
20181;SDS011;10250;50.756;6.172;2024-02-16T02:54:33;7.83;;;1.83;;
20181;SDS011;10250;50.756;6.172;2024-02-16T02:56:34;9.93;;;2.03;;
20181;SDS011;10250;50.756;6.172;2024-02-16T02:58:35;7.97;;;2.00;;
20181;SDS011;10250;50.756;6.172;2024-02-16T03:00:35;7.70;;;2.00;;
20181;SDS011;10250;50.756;6.172;2024-02-16T03:02:39;12.10;;;2.23;;
20181;SDS011;10250;50.756;6.172;2024-02-16T03:04:40;10.47;;;2.40;;
20181;SDS011;10250;50.756;6.172;2024-02-16T03:06:40;10.27;;;2.23;;
20181;SDS011;10250;50.756;6.172;2024-02-16T03:08:41;10.03;;;2.07;;
20181;SDS011;10250;50.756;6.172;2024-02-16T03:10:42;13.60;;;2.67;;
20181;SDS011;10250;50.756;6.172;2024-02-16T03:12:44;9.63;;;2.30;;
20181;SDS011;10250;50.756;6.172;2024-02-16T03:14:44;8.23;;;2.37;;
20181;SDS011;10250;50.756;6.172;2024-02-16T03:16:45;8.77;;;2.10;;
20181;SDS011;10250;50.756;6.172;2024-02-16T03:18:46;8.17;;;2.17;;
20181;SDS011;10250;50.756;6.172;2024-02-16T03:20:46;9.63;;;1.90;;
20181;SDS011;10250;50.756;6.172;2024-02-16T03:22:48;8.63;;;2.40;;
20181;SDS011;10250;50.756;6.172;2024-02-16T03:24:49;9.47;;;2.23;;
20181;SDS011;10250;50.756;6.172;2024-02-16T03:26:50;8.40;;;2.03;;
20181;SDS011;10250;50.756;6.172;2024-02-16T03:28:50;7.37;;;1.90;;
20181;SDS011;10250;50.756;6.172;2024-02-16T03:30:52;7.63;;;1.87;;
20181;SDS011;10250;50.756;6.172;2024-02-16T03:32:52;9.10;;;2.20;;
20181;SDS011;10250;50.756;6.172;2024-02-16T03:34:53;8.87;;;2.00;;
20181;SDS011;10250;50.756;6.172;2024-02-16T03:36:56;9.37;;;2.33;;
20181;SDS011;10250;50.756;6.172;2024-02-16T03:38:58;8.03;;;2.20;;
20181;SDS011;10250;50.756;6.172;2024-02-16T03:40:59;6.97;;;1.90;;
20181;SDS011;10250;50.756;6.172;2024-02-16T03:43:00;7.97;;;2.00;;
20181;SDS011;10250;50.756;6.172;2024-02-16T03:45:00;8.27;;;1.87;;
20181;SDS011;10250;50.756;6.172;2024-02-16T03:47:02;8.67;;;1.83;;
20181;SDS011;10250;50.756;6.172;2024-02-16T03:49:03;7.23;;;1.90;;
20181;SDS011;10250;50.756;6.172;2024-02-16T03:51:04;10.00;;;2.27;;
20181;SDS011;10250;50.756;6.172;2024-02-16T03:53:04;12.13;;;2.30;;
20181;SDS011;10250;50.756;6.172;2024-02-16T03:55:05;9.70;;;2.00;;
20181;SDS011;10250;50.756;6.172;2024-02-16T03:57:06;12.10;;;2.27;;
20181;SDS011;10250;50.756;6.172;2024-02-16T03:59:09;8.23;;;2.30;;
20181;SDS011;10250;50.756;6.172;2024-02-16T04:01:10;9.53;;;2.23;;
20181;SDS011;10250;50.756;6.172;2024-02-16T04:03:10;6.87;;;2.00;;
20181;SDS011;10250;50.756;6.172;2024-02-16T04:05:11;8.80;;;2.20;;
20181;SDS011;10250;50.756;6.172;2024-02-16T04:07:12;10.33;;;2.63;;
20181;SDS011;10250;50.756;6.172;2024-02-16T04:09:12;8.87;;;2.57;;
20181;SDS011;10250;50.756;6.172;2024-02-16T04:11:13;9.20;;;2.17;;
20181;SDS011;10250;50.756;6.172;2024-02-16T04:13:15;9.93;;;2.43;;
20181;SDS011;10250;50.756;6.172;2024-02-16T04:15:15;11.43;;;2.37;;
20181;SDS011;10250;50.756;6.172;2024-02-16T04:17:16;9.03;;;2.40;;
20181;SDS011;10250;50.756;6.172;2024-02-16T04:19:17;9.10;;;2.30;;
20181;SDS011;10250;50.756;6.172;2024-02-16T04:21:17;8.83;;;2.30;;
20181;SDS011;10250;50.756;6.172;2024-02-16T04:23:18;9.80;;;2.50;;
20181;SDS011;10250;50.756;6.172;2024-02-16T04:25:19;9.13;;;2.23;;
20181;SDS011;10250;50.756;6.172;2024-02-16T04:27:19;10.73;;;2.40;;
20181;SDS011;10250;50.756;6.172;2024-02-16T04:29:20;11.33;;;2.47;;
20181;SDS011;10250;50.756;6.172;2024-02-16T04:31:20;8.90;;;2.47;;
20181;SDS011;10250;50.756;6.172;2024-02-16T04:33:21;10.17;;;2.63;;
20181;SDS011;10250;50.756;6.172;2024-02-16T04:35:22;9.87;;;2.27;;
20181;SDS011;10250;50.756;6.172;2024-02-16T04:37:23;8.40;;;2.30;;
20181;SDS011;10250;50.756;6.172;2024-02-16T04:39:23;10.17;;;2.40;;
20181;SDS011;10250;50.756;6.172;2024-02-16T04:41:24;10.03;;;2.30;;
20181;SDS011;10250;50.756;6.172;2024-02-16T04:43:25;7.63;;;2.20;;
20181;SDS011;10250;50.756;6.172;2024-02-16T04:45:26;10.53;;;2.33;;
20181;SDS011;10250;50.756;6.172;2024-02-16T04:47:27;9.90;;;2.37;;
20181;SDS011;10250;50.756;6.172;2024-02-16T04:49:27;11.80;;;2.53;;
20181;SDS011;10250;50.756;6.172;2024-02-16T04:51:28;10.07;;;2.20;;
20181;SDS011;10250;50.756;6.172;2024-02-16T04:53:28;11.00;;;2.57;;
20181;SDS011;10250;50.756;6.172;2024-02-16T04:55:29;11.03;;;2.23;;
20181;SDS011;10250;50.756;6.172;2024-02-16T04:57:31;8.97;;;2.53;;
20181;SDS011;10250;50.756;6.172;2024-02-16T04:59:32;10.90;;;2.43;;
20181;SDS011;10250;50.756;6.172;2024-02-16T05:01:33;12.97;;;2.63;;
20181;SDS011;10250;50.756;6.172;2024-02-16T05:03:34;8.63;;;2.23;;
20181;SDS011;10250;50.756;6.172;2024-02-16T05:05:34;10.83;;;2.10;;
20181;SDS011;10250;50.756;6.172;2024-02-16T05:07:35;10.93;;;2.27;;
20181;SDS011;10250;50.756;6.172;2024-02-16T05:09:36;8.90;;;2.20;;
20181;SDS011;10250;50.756;6.172;2024-02-16T05:11:37;10.63;;;2.40;;
20181;SDS011;10250;50.756;6.172;2024-02-16T05:13:37;12.67;;;2.67;;
20181;SDS011;10250;50.756;6.172;2024-02-16T05:15:39;9.00;;;2.03;;
20181;SDS011;10250;50.756;6.172;2024-02-16T05:17:40;13.13;;;2.60;;
20181;SDS011;10250;50.756;6.172;2024-02-16T05:19:41;10.27;;;2.30;;
20181;SDS011;10250;50.756;6.172;2024-02-16T05:21:41;11.63;;;2.30;;
20181;SDS011;10250;50.756;6.172;2024-02-16T05:23:42;10.40;;;2.40;;
20181;SDS011;10250;50.756;6.172;2024-02-16T05:25:43;10.10;;;2.37;;
20181;SDS011;10250;50.756;6.172;2024-02-16T05:27:44;11.40;;;2.47;;
20181;SDS011;10250;50.756;6.172;2024-02-16T05:29:46;11.73;;;2.53;;
20181;SDS011;10250;50.756;6.172;2024-02-16T05:31:50;9.43;;;2.30;;
20181;SDS011;10250;50.756;6.172;2024-02-16T05:33:51;10.87;;;2.20;;
20181;SDS011;10250;50.756;6.172;2024-02-16T05:35:52;10.60;;;2.43;;
20181;SDS011;10250;50.756;6.172;2024-02-16T05:37:55;9.27;;;2.30;;
20181;SDS011;10250;50.756;6.172;2024-02-16T05:39:55;9.50;;;2.30;;
20181;SDS011;10250;50.756;6.172;2024-02-16T05:42:19;11.90;;;2.70;;
20181;SDS011;10250;50.756;6.172;2024-02-16T05:44:22;12.13;;;2.20;;
20181;SDS011;10250;50.756;6.172;2024-02-16T05:46:22;8.60;;;1.87;;
20181;SDS011;10250;50.756;6.172;2024-02-16T05:48:23;10.53;;;2.43;;
20181;SDS011;10250;50.756;6.172;2024-02-16T05:50:26;11.13;;;2.30;;
20181;SDS011;10250;50.756;6.172;2024-02-16T05:52:27;8.17;;;2.13;;
20181;SDS011;10250;50.756;6.172;2024-02-16T05:54:30;11.30;;;2.07;;
20181;SDS011;10250;50.756;6.172;2024-02-16T05:56:31;11.33;;;2.30;;
20181;SDS011;10250;50.756;6.172;2024-02-16T05:58:33;10.57;;;2.80;;
20181;SDS011;10250;50.756;6.172;2024-02-16T06:00:35;10.20;;;2.40;;
20181;SDS011;10250;50.756;6.172;2024-02-16T06:02:35;11.57;;;2.37;;
20181;SDS011;10250;50.756;6.172;2024-02-16T06:04:36;8.70;;;2.03;;
20181;SDS011;10250;50.756;6.172;2024-02-16T06:06:37;8.33;;;2.20;;
20181;SDS011;10250;50.756;6.172;2024-02-16T06:08:39;9.63;;;2.30;;
20181;SDS011;10250;50.756;6.172;2024-02-16T06:10:39;10.57;;;2.20;;
20181;SDS011;10250;50.756;6.172;2024-02-16T06:12:41;10.27;;;2.20;;
20181;SDS011;10250;50.756;6.172;2024-02-16T06:14:42;11.50;;;2.43;;
20181;SDS011;10250;50.756;6.172;2024-02-16T06:16:43;10.30;;;2.30;;
20181;SDS011;10250;50.756;6.172;2024-02-16T06:18:43;8.50;;;2.10;;
20181;SDS011;10250;50.756;6.172;2024-02-16T06:20:44;9.67;;;2.30;;
20181;SDS011;10250;50.756;6.172;2024-02-16T06:22:45;11.20;;;2.20;;
20181;SDS011;10250;50.756;6.172;2024-02-16T06:24:46;10.27;;;2.33;;
20181;SDS011;10250;50.756;6.172;2024-02-16T06:26:46;7.83;;;2.07;;
20181;SDS011;10250;50.756;6.172;2024-02-16T06:28:48;11.70;;;2.27;;
20181;SDS011;10250;50.756;6.172;2024-02-16T06:30:48;13.60;;;2.63;;
20181;SDS011;10250;50.756;6.172;2024-02-16T06:32:49;10.77;;;2.20;;
20181;SDS011;10250;50.756;6.172;2024-02-16T06:34:49;9.93;;;2.47;;
20181;SDS011;10250;50.756;6.172;2024-02-16T06:36:51;9.40;;;2.50;;
20181;SDS011;10250;50.756;6.172;2024-02-16T06:38:52;9.10;;;2.30;;
20181;SDS011;10250;50.756;6.172;2024-02-16T06:40:53;13.57;;;2.40;;
20181;SDS011;10250;50.756;6.172;2024-02-16T06:42:53;10.63;;;2.30;;
20181;SDS011;10250;50.756;6.172;2024-02-16T06:44:54;10.13;;;2.10;;
20181;SDS011;10250;50.756;6.172;2024-02-16T06:46:55;9.90;;;2.10;;
20181;SDS011;10250;50.756;6.172;2024-02-16T06:48:55;12.10;;;2.63;;
20181;SDS011;10250;50.756;6.172;2024-02-16T06:50:56;9.00;;;2.37;;
20181;SDS011;10250;50.756;6.172;2024-02-16T06:52:57;11.67;;;2.60;;
20181;SDS011;10250;50.756;6.172;2024-02-16T06:54:57;11.93;;;2.37;;
20181;SDS011;10250;50.756;6.172;2024-02-16T06:56:58;10.67;;;2.20;;
20181;SDS011;10250;50.756;6.172;2024-02-16T06:58:58;9.93;;;2.33;;
20181;SDS011;10250;50.756;6.172;2024-02-16T07:00:59;10.87;;;2.00;;
20181;SDS011;10250;50.756;6.172;2024-02-16T07:03:03;15.20;;;2.50;;
20181;SDS011;10250;50.756;6.172;2024-02-16T07:05:04;15.03;;;2.87;;
20181;SDS011;10250;50.756;6.172;2024-02-16T07:07:04;10.47;;;2.53;;
20181;SDS011;10250;50.756;6.172;2024-02-16T07:09:06;12.07;;;2.87;;
20181;SDS011;10250;50.756;6.172;2024-02-16T07:11:07;12.07;;;2.47;;
20181;SDS011;10250;50.756;6.172;2024-02-16T07:13:11;10.23;;;2.50;;
20181;SDS011;10250;50.756;6.172;2024-02-16T07:15:11;12.80;;;2.47;;
20181;SDS011;10250;50.756;6.172;2024-02-16T07:17:12;10.63;;;2.33;;
20181;SDS011;10250;50.756;6.172;2024-02-16T07:19:13;9.17;;;2.30;;
20181;SDS011;10250;50.756;6.172;2024-02-16T07:21:13;10.40;;;2.77;;
20181;SDS011;10250;50.756;6.172;2024-02-16T07:23:14;10.40;;;2.50;;
20181;SDS011;10250;50.756;6.172;2024-02-16T07:25:15;12.40;;;2.70;;
20181;SDS011;10250;50.756;6.172;2024-02-16T07:27:15;13.77;;;2.67;;
20181;SDS011;10250;50.756;6.172;2024-02-16T07:29:17;13.37;;;2.63;;
20181;SDS011;10250;50.756;6.172;2024-02-16T07:31:18;12.80;;;2.70;;
20181;SDS011;10250;50.756;6.172;2024-02-16T07:33:18;12.47;;;2.33;;
20181;SDS011;10250;50.756;6.172;2024-02-16T07:35:19;9.73;;;2.50;;
20181;SDS011;10250;50.756;6.172;2024-02-16T07:37:21;10.03;;;2.50;;
20181;SDS011;10250;50.756;6.172;2024-02-16T07:39:21;8.30;;;2.17;;
20181;SDS011;10250;50.756;6.172;2024-02-16T07:41:23;10.00;;;2.43;;
20181;SDS011;10250;50.756;6.172;2024-02-16T07:43:24;8.57;;;2.30;;
20181;SDS011;10250;50.756;6.172;2024-02-16T07:45:25;11.37;;;2.40;;
20181;SDS011;10250;50.756;6.172;2024-02-16T07:47:25;11.83;;;2.73;;
20181;SDS011;10250;50.756;6.172;2024-02-16T07:49:27;9.53;;;2.37;;
20181;SDS011;10250;50.756;6.172;2024-02-16T07:51:27;10.33;;;2.63;;
20181;SDS011;10250;50.756;6.172;2024-02-16T07:53:28;10.80;;;2.50;;
20181;SDS011;10250;50.756;6.172;2024-02-16T07:55:31;12.03;;;2.60;;
20181;SDS011;10250;50.756;6.172;2024-02-16T07:57:31;9.23;;;2.20;;
20181;SDS011;10250;50.756;6.172;2024-02-16T07:59:32;14.97;;;2.50;;
20181;SDS011;10250;50.756;6.172;2024-02-16T08:01:33;14.43;;;2.60;;
20181;SDS011;10250;50.756;6.172;2024-02-16T08:03:33;15.00;;;4.83;;
20181;SDS011;10250;50.756;6.172;2024-02-16T08:05:34;13.00;;;3.13;;
20181;SDS011;10250;50.756;6.172;2024-02-16T08:07:35;9.77;;;2.40;;
20181;SDS011;10250;50.756;6.172;2024-02-16T08:09:35;10.60;;;2.47;;
20181;SDS011;10250;50.756;6.172;2024-02-16T08:11:36;14.07;;;2.77;;
20181;SDS011;10250;50.756;6.172;2024-02-16T08:13:36;12.27;;;2.50;;
20181;SDS011;10250;50.756;6.172;2024-02-16T08:15:37;17.27;;;2.27;;
20181;SDS011;10250;50.756;6.172;2024-02-16T08:17:38;10.60;;;2.33;;
20181;SDS011;10250;50.756;6.172;2024-02-16T08:19:39;12.87;;;2.53;;
20181;SDS011;10250;50.756;6.172;2024-02-16T08:21:40;11.03;;;2.37;;
20181;SDS011;10250;50.756;6.172;2024-02-16T08:23:41;8.97;;;2.20;;
20181;SDS011;10250;50.756;6.172;2024-02-16T08:25:41;14.23;;;2.63;;
20181;SDS011;10250;50.756;6.172;2024-02-16T08:27:42;14.33;;;2.97;;
20181;SDS011;10250;50.756;6.172;2024-02-16T08:29:42;12.63;;;2.23;;
20181;SDS011;10250;50.756;6.172;2024-02-16T08:31:43;12.43;;;2.43;;
20181;SDS011;10250;50.756;6.172;2024-02-16T08:33:44;10.23;;;2.40;;
20181;SDS011;10250;50.756;6.172;2024-02-16T08:35:46;9.40;;;2.57;;
20181;SDS011;10250;50.756;6.172;2024-02-16T08:37:47;11.70;;;2.63;;
20181;SDS011;10250;50.756;6.172;2024-02-16T08:39:48;11.50;;;2.40;;
20181;SDS011;10250;50.756;6.172;2024-02-16T08:41:48;11.07;;;2.50;;
20181;SDS011;10250;50.756;6.172;2024-02-16T08:43:49;15.23;;;2.80;;
20181;SDS011;10250;50.756;6.172;2024-02-16T08:45:49;28.60;;;12.23;;
20181;SDS011;10250;50.756;6.172;2024-02-16T08:47:50;18.23;;;3.10;;
20181;SDS011;10250;50.756;6.172;2024-02-16T08:49:50;13.03;;;3.00;;
20181;SDS011;10250;50.756;6.172;2024-02-16T08:51:51;12.13;;;2.57;;
20181;SDS011;10250;50.756;6.172;2024-02-16T08:53:51;12.07;;;2.60;;
20181;SDS011;10250;50.756;6.172;2024-02-16T08:55:52;13.47;;;2.87;;
20181;SDS011;10250;50.756;6.172;2024-02-16T08:57:53;15.83;;;3.00;;
20181;SDS011;10250;50.756;6.172;2024-02-16T09:00:02;17.57;;;2.73;;
20181;SDS011;10250;50.756;6.172;2024-02-16T09:02:03;12.20;;;2.50;;
20181;SDS011;10250;50.756;6.172;2024-02-16T09:04:04;10.60;;;2.33;;
20181;SDS011;10250;50.756;6.172;2024-02-16T09:06:05;12.37;;;2.83;;
20181;SDS011;10250;50.756;6.172;2024-02-16T09:08:06;9.27;;;2.27;;
20181;SDS011;10250;50.756;6.172;2024-02-16T09:10:07;10.67;;;2.57;;
20181;SDS011;10250;50.756;6.172;2024-02-16T09:12:08;13.50;;;2.50;;
20181;SDS011;10250;50.756;6.172;2024-02-16T09:14:09;24.83;;;2.73;;
20181;SDS011;10250;50.756;6.172;2024-02-16T09:16:09;7.57;;;2.30;;
20181;SDS011;10250;50.756;6.172;2024-02-16T09:18:10;15.10;;;2.70;;
20181;SDS011;10250;50.756;6.172;2024-02-16T09:20:11;8.70;;;2.17;;
20181;SDS011;10250;50.756;6.172;2024-02-16T09:22:11;12.00;;;2.73;;
20181;SDS011;10250;50.756;6.172;2024-02-16T09:24:12;21.97;;;5.70;;
20181;SDS011;10250;50.756;6.172;2024-02-16T09:26:17;11.40;;;2.43;;
20181;SDS011;10250;50.756;6.172;2024-02-16T09:28:18;10.60;;;2.40;;
20181;SDS011;10250;50.756;6.172;2024-02-16T09:30:19;11.73;;;2.30;;
20181;SDS011;10250;50.756;6.172;2024-02-16T09:32:21;10.13;;;2.57;;
20181;SDS011;10250;50.756;6.172;2024-02-16T09:34:22;13.20;;;2.67;;
20181;SDS011;10250;50.756;6.172;2024-02-16T09:36:23;9.90;;;2.60;;
20181;SDS011;10250;50.756;6.172;2024-02-16T09:38:23;14.63;;;3.00;;
20181;SDS011;10250;50.756;6.172;2024-02-16T09:40:24;10.83;;;2.50;;
20181;SDS011;10250;50.756;6.172;2024-02-16T09:42:26;11.53;;;2.30;;
20181;SDS011;10250;50.756;6.172;2024-02-16T09:44:27;13.27;;;2.70;;
20181;SDS011;10250;50.756;6.172;2024-02-16T09:46:29;14.40;;;2.70;;
20181;SDS011;10250;50.756;6.172;2024-02-16T09:48:32;13.10;;;2.73;;
20181;SDS011;10250;50.756;6.172;2024-02-16T09:50:32;14.47;;;2.80;;
20181;SDS011;10250;50.756;6.172;2024-02-16T09:52:33;9.73;;;2.40;;
20181;SDS011;10250;50.756;6.172;2024-02-16T09:54:34;9.93;;;2.57;;
20181;SDS011;10250;50.756;6.172;2024-02-16T09:56:34;13.70;;;2.37;;
20181;SDS011;10250;50.756;6.172;2024-02-16T09:58:35;12.90;;;2.50;;
20181;SDS011;10250;50.756;6.172;2024-02-16T10:00:36;14.90;;;2.63;;
20181;SDS011;10250;50.756;6.172;2024-02-16T10:02:43;13.93;;;2.90;;
20181;SDS011;10250;50.756;6.172;2024-02-16T10:04:44;14.40;;;2.40;;
20181;SDS011;10250;50.756;6.172;2024-02-16T10:06:45;11.90;;;2.63;;
20181;SDS011;10250;50.756;6.172;2024-02-16T10:08:48;10.43;;;2.43;;
20181;SDS011;10250;50.756;6.172;2024-02-16T10:11:00;12.73;;;2.97;;
20181;SDS011;10250;50.756;6.172;2024-02-16T10:15:04;16.23;;;3.00;;
20181;SDS011;10250;50.756;6.172;2024-02-16T10:17:05;14.83;;;2.87;;
20181;SDS011;10250;50.756;6.172;2024-02-16T10:19:07;14.13;;;2.73;;
20181;SDS011;10250;50.756;6.172;2024-02-16T10:21:11;13.60;;;2.80;;
20181;SDS011;10250;50.756;6.172;2024-02-16T10:23:12;14.43;;;2.73;;
20181;SDS011;10250;50.756;6.172;2024-02-16T10:25:13;10.10;;;2.60;;
20181;SDS011;10250;50.756;6.172;2024-02-16T10:27:14;10.90;;;2.77;;
20181;SDS011;10250;50.756;6.172;2024-02-16T10:29:21;10.13;;;2.53;;
20181;SDS011;10250;50.756;6.172;2024-02-16T10:31:24;10.73;;;3.00;;
20181;SDS011;10250;50.756;6.172;2024-02-16T10:33:29;16.30;;;3.43;;
20181;SDS011;10250;50.756;6.172;2024-02-16T10:35:35;11.50;;;2.90;;
20181;SDS011;10250;50.756;6.172;2024-02-16T10:37:37;10.97;;;2.53;;
20181;SDS011;10250;50.756;6.172;2024-02-16T10:39:37;11.53;;;2.73;;
20181;SDS011;10250;50.756;6.172;2024-02-16T10:41:41;12.83;;;2.93;;
20181;SDS011;10250;50.756;6.172;2024-02-16T10:43:42;11.40;;;2.77;;
20181;SDS011;10250;50.756;6.172;2024-02-16T10:45:43;13.23;;;3.30;;
20181;SDS011;10250;50.756;6.172;2024-02-16T10:47:47;14.43;;;3.17;;
20181;SDS011;10250;50.756;6.172;2024-02-16T10:49:47;14.20;;;2.87;;
20181;SDS011;10250;50.756;6.172;2024-02-16T10:51:48;13.67;;;2.83;;
20181;SDS011;10250;50.756;6.172;2024-02-16T10:53:53;12.57;;;2.90;;
20181;SDS011;10250;50.756;6.172;2024-02-16T10:55:59;11.67;;;2.80;;
20181;SDS011;10250;50.756;6.172;2024-02-16T10:58:01;12.50;;;3.27;;
20181;SDS011;10250;50.756;6.172;2024-02-16T11:00:06;11.90;;;2.60;;
20181;SDS011;10250;50.756;6.172;2024-02-16T11:02:09;8.73;;;2.53;;
20181;SDS011;10250;50.756;6.172;2024-02-16T11:04:11;12.13;;;2.77;;
20181;SDS011;10250;50.756;6.172;2024-02-16T11:06:14;13.23;;;3.07;;
20181;SDS011;10250;50.756;6.172;2024-02-16T11:08:19;16.73;;;3.30;;
20181;SDS011;10250;50.756;6.172;2024-02-16T11:10:23;12.27;;;3.20;;
20181;SDS011;10250;50.756;6.172;2024-02-16T11:12:23;13.10;;;3.17;;
20181;SDS011;10250;50.756;6.172;2024-02-16T11:14:24;20.13;;;4.10;;
20181;SDS011;10250;50.756;6.172;2024-02-16T11:16:43;17.37;;;4.07;;
20181;SDS011;10250;50.756;6.172;2024-02-16T11:18:47;14.57;;;3.37;;
20181;SDS011;10250;50.756;6.172;2024-02-16T11:20:49;15.30;;;2.97;;
20181;SDS011;10250;50.756;6.172;2024-02-16T11:22:50;15.43;;;3.20;;
20181;SDS011;10250;50.756;6.172;2024-02-16T11:24:53;10.77;;;3.07;;
20181;SDS011;10250;50.756;6.172;2024-02-16T11:26:54;16.67;;;3.30;;
20181;SDS011;10250;50.756;6.172;2024-02-16T11:28:55;15.40;;;3.50;;
20181;SDS011;10250;50.756;6.172;2024-02-16T11:30:56;11.00;;;3.10;;
20181;SDS011;10250;50.756;6.172;2024-02-16T11:32:56;12.27;;;3.27;;
20181;SDS011;10250;50.756;6.172;2024-02-16T11:35:04;21.73;;;7.50;;
20181;SDS011;10250;50.756;6.172;2024-02-16T11:37:06;15.27;;;3.33;;
20181;SDS011;10250;50.756;6.172;2024-02-16T11:39:12;14.07;;;3.30;;
20181;SDS011;10250;50.756;6.172;2024-02-16T11:41:16;16.67;;;3.23;;
20181;SDS011;10250;50.756;6.172;2024-02-16T11:43:21;14.57;;;3.80;;
20181;SDS011;10250;50.756;6.172;2024-02-16T11:45:23;16.70;;;4.23;;
20181;SDS011;10250;50.756;6.172;2024-02-16T11:47:24;12.47;;;3.50;;
20181;SDS011;10250;50.756;6.172;2024-02-16T11:49:26;13.97;;;3.80;;
20181;SDS011;10250;50.756;6.172;2024-02-16T11:51:28;16.03;;;3.70;;
20181;SDS011;10250;50.756;6.172;2024-02-16T11:53:29;15.30;;;3.80;;
20181;SDS011;10250;50.756;6.172;2024-02-16T11:55:30;12.93;;;3.90;;
20181;SDS011;10250;50.756;6.172;2024-02-16T11:57:32;19.23;;;3.93;;
20181;SDS011;10250;50.756;6.172;2024-02-16T11:59:33;16.77;;;4.40;;
20181;SDS011;10250;50.756;6.172;2024-02-16T12:01:34;15.87;;;3.90;;
20181;SDS011;10250;50.756;6.172;2024-02-16T12:03:34;13.47;;;3.80;;
20181;SDS011;10250;50.756;6.172;2024-02-16T12:05:35;13.50;;;3.90;;
20181;SDS011;10250;50.756;6.172;2024-02-16T12:07:39;14.43;;;3.83;;